createdAt,value
2022-11-23T00:03:25.053Z,4.70
2022-11-23T00:08:27.594Z,4.74
2022-11-23T00:13:32.956Z,4.73
2022-11-23T00:18:35.319Z,4.71
2022-11-23T00:23:49.286Z,4.74
2022-11-23T00:28:59.995Z,4.80
2022-11-23T00:34:07.327Z,4.86
2022-11-23T00:39:13.030Z,4.93
2022-11-23T00:44:19.346Z,4.97
2022-11-23T00:49:22.787Z,5.03
2022-11-23T00:54:24.658Z,5.08
2022-11-23T00:59:34.975Z,5.12
2022-11-23T01:04:39.321Z,5.16
2022-11-23T01:09:41.275Z,5.19
2022-11-23T01:14:45.318Z,5.21
2022-11-23T01:19:49.550Z,5.23
2022-11-23T01:24:53.470Z,5.25
2022-11-23T01:29:59.847Z,5.25
2022-11-23T01:35:05.853Z,5.24
2022-11-23T01:40:08.377Z,5.27
2022-11-23T01:45:34.990Z,5.31
2022-11-23T01:50:36.956Z,5.33
2022-11-23T01:55:41.286Z,5.38
2022-11-23T02:00:46.102Z,5.40
2022-11-23T02:06:01.344Z,5.39
2022-11-23T02:11:03.410Z,5.38
2022-11-23T02:16:05.546Z,5.39
2022-11-23T02:21:11.891Z,5.40
2022-11-23T02:26:37.746Z,5.41
2022-11-23T02:31:55.533Z,5.42
2022-11-23T02:37:08.321Z,5.42
2022-11-23T02:42:15.055Z,5.41
2022-11-23T02:47:21.098Z,5.42
2022-11-23T02:52:34.578Z,5.42
2022-11-23T02:57:37.248Z,5.43
2022-11-23T03:02:41.649Z,5.42
2022-11-23T03:07:46.523Z,5.42
2022-11-23T03:12:48.432Z,5.42
2022-11-23T03:17:50.820Z,5.43
2022-11-23T03:22:54.402Z,5.43
2022-11-23T03:28:00.716Z,5.44
2022-11-23T03:33:05.189Z,5.47
2022-11-23T03:38:07.252Z,5.48
2022-11-23T03:43:09.356Z,5.51
2022-11-23T03:48:11.504Z,5.52
2022-11-23T03:53:14.578Z,5.54
2022-11-23T03:58:17.558Z,5.55
2022-11-23T04:03:24.310Z,5.55
2022-11-23T04:08:47.282Z,5.53
2022-11-23T04:13:57.422Z,5.54
2022-11-23T04:19:01.480Z,5.57
2022-11-23T04:24:08.686Z,5.59
2022-11-23T04:29:13.987Z,5.61
2022-11-23T04:34:21.014Z,5.62
2022-11-23T04:39:27.374Z,5.85
2022-11-23T04:44:59.239Z,5.76
2022-11-23T04:50:01.777Z,5.73
2022-11-23T04:55:06.505Z,5.74
2022-11-23T05:00:12.149Z,5.75
2022-11-23T05:05:18.963Z,5.76
2022-11-23T05:10:22.831Z,5.76
2022-11-23T05:15:32.109Z,5.79
2022-11-23T05:20:36.277Z,5.81
2022-11-23T05:25:38.068Z,5.84
2022-11-23T05:30:48.645Z,5.85
2022-11-23T05:35:55.642Z,5.90
2022-11-23T05:41:09.020Z,5.92
2022-11-23T05:46:18.931Z,5.95
2022-11-23T05:51:24.421Z,5.95
2022-11-23T05:56:26.907Z,5.99
2022-11-23T06:01:50.307Z,6.00
2022-11-23T06:07:01.845Z,6.04
2022-11-23T06:12:21.318Z,6.08
2022-11-23T06:17:24.033Z,6.08
2022-11-23T06:22:29.383Z,6.11
2022-11-23T06:27:39.668Z,6.11
2022-11-23T06:32:50.877Z,6.07
2022-11-23T06:37:54.727Z,6.14
2022-11-23T06:43:00.472Z,6.17
2022-11-23T06:48:22.440Z,6.24
2022-11-23T06:53:28.535Z,6.29
2022-11-23T06:58:37.913Z,6.33
2022-11-23T07:03:44.778Z,6.32
2022-11-23T07:09:00.177Z,6.31
2022-11-23T07:14:15.645Z,6.31
2022-11-23T07:19:23.266Z,6.29
2022-11-23T07:24:26.606Z,6.36
2022-11-23T07:29:28.372Z,6.52
2022-11-23T07:34:30.903Z,6.66
2022-11-23T07:39:55.843Z,6.70
2022-11-23T07:44:58.082Z,6.69
2022-11-23T07:49:59.795Z,6.66
2022-11-23T07:55:01.749Z,6.65
2022-11-23T08:00:06.993Z,6.65
2022-11-23T08:05:14.362Z,6.65
2022-11-23T08:10:17.246Z,6.70
2022-11-23T08:15:18.937Z,6.75
2022-11-23T08:20:22.780Z,6.83
2022-11-23T08:25:30.698Z,6.90
2022-11-23T08:30:35.546Z,7.01
2022-11-23T08:35:41.093Z,7.13
2022-11-23T08:40:42.789Z,7.36
2022-11-23T08:45:47.050Z,7.52
2022-11-23T08:50:48.698Z,7.53
2022-11-23T08:55:52.728Z,7.38
2022-11-23T09:00:54.473Z,7.36
2022-11-23T09:06:01.850Z,7.31
2022-11-23T09:11:10.103Z,7.25
2022-11-23T09:16:16.614Z,7.26
2022-11-23T09:21:21.277Z,7.39
2022-11-23T09:26:23.283Z,7.39
2022-11-23T09:31:26.932Z,7.43
2022-11-23T09:36:28.806Z,7.43
2022-11-23T09:42:07.328Z,7.45
2022-11-23T09:47:46.739Z,7.54
2022-11-23T09:52:50.546Z,7.60
2022-11-23T09:57:58.270Z,7.74
2022-11-23T10:03:00.015Z,7.84
2022-11-23T10:08:27.292Z,7.95
2022-11-23T10:13:45.862Z,7.91
2022-11-23T10:18:53.475Z,7.89
2022-11-23T10:24:01.094Z,8.05
2022-11-23T10:29:14.469Z,8.19
2022-11-23T10:34:19.578Z,8.33
2022-11-23T10:39:31.593Z,8.41
2022-11-23T10:44:38.023Z,8.52
2022-11-23T10:49:56.800Z,8.59
2022-11-23T10:55:00.907Z,8.63
2022-11-23T11:00:08.067Z,8.76
2022-11-23T11:05:16.044Z,8.89
2022-11-23T11:10:39.550Z,9.08
2022-11-23T11:15:55.038Z,9.30
2022-11-23T11:21:02.855Z,9.34
2022-11-23T11:26:08.145Z,9.11
2022-11-23T11:31:14.938Z,9.05
2022-11-23T11:36:17.134Z,8.98
2022-11-23T11:41:31.916Z,8.96
2022-11-23T11:46:40.833Z,8.92
2022-11-23T11:52:06.522Z,8.98
2022-11-23T11:57:24.292Z,8.98
2022-11-23T12:02:33.958Z,8.92
2022-11-23T12:07:44.174Z,8.96
2022-11-23T12:12:49.053Z,8.99
2022-11-23T12:18:11.670Z,8.96
2022-11-23T12:23:37.170Z,8.94
2022-11-23T12:28:41.906Z,8.92
2022-11-23T12:33:58.011Z,8.92
2022-11-23T12:39:30.595Z,8.92
2022-11-23T12:44:49.517Z,9.39
2022-11-23T12:50:04.625Z,10.11
2022-11-23T12:55:33.137Z,10.69
2022-11-23T13:00:40.679Z,11.23
2022-11-23T13:05:51.593Z,11.22
2022-11-23T13:11:05.928Z,10.79
2022-11-23T13:16:19.308Z,10.79
2022-11-23T13:21:30.514Z,11.62
2022-11-23T13:26:38.356Z,11.30
2022-11-23T13:31:42.432Z,10.77
2022-11-23T13:37:15.138Z,10.74
2022-11-23T13:42:17.547Z,10.95
2022-11-23T13:47:24.023Z,11.04
2022-11-23T13:52:28.098Z,11.47
2022-11-23T13:57:30.318Z,11.42
2022-11-23T14:02:32.013Z,11.24
2022-11-23T14:07:46.286Z,10.74
2022-11-23T14:12:54.851Z,10.33
2022-11-23T14:18:00.664Z,10.27
2022-11-23T14:23:38.761Z,9.97
2022-11-23T14:28:52.506Z,9.65
2022-11-23T14:34:32.407Z,9.40
2022-11-23T14:39:55.440Z,9.23
2022-11-23T14:45:04.927Z,9.05
2022-11-23T14:50:22.774Z,8.84
2022-11-23T14:55:29.695Z,8.66
2022-11-23T15:00:43.633Z,8.47
2022-11-23T15:06:13.046Z,8.32
2022-11-23T15:11:18.709Z,8.17
2022-11-23T15:16:22.455Z,8.02
2022-11-23T15:21:30.261Z,7.83
2022-11-23T15:26:49.407Z,7.67
2022-11-23T15:32:14.113Z,7.50
2022-11-23T15:37:17.406Z,7.36
2022-11-23T15:42:21.277Z,7.31
2022-11-23T15:47:27.283Z,7.26
2022-11-23T15:52:35.649Z,7.17
2022-11-23T15:57:38.456Z,7.06
2022-11-23T16:02:43.209Z,6.99
2022-11-23T16:08:02.556Z,6.97
2022-11-23T16:13:06.118Z,6.94
2022-11-23T16:18:20.014Z,6.91
2022-11-23T16:23:28.479Z,6.84
2022-11-23T16:28:47.562Z,6.84
2022-11-23T16:33:50.223Z,6.77
2022-11-23T16:38:51.983Z,6.68
2022-11-23T16:43:58.497Z,6.61
2022-11-23T16:49:01.536Z,6.50
2022-11-23T16:54:24.466Z,6.41
2022-11-23T16:59:28.732Z,6.58
2022-11-23T17:04:32.935Z,6.46
2022-11-23T17:09:35.197Z,6.32
2022-11-23T17:14:40.036Z,6.23
2022-11-23T17:19:48.625Z,6.08
2022-11-23T17:24:54.499Z,6.00
2022-11-23T17:30:01.336Z,5.96
2022-11-23T17:35:08.169Z,5.89
2022-11-23T17:40:21.145Z,5.74
2022-11-23T17:45:30.101Z,5.60
2022-11-23T17:50:33.855Z,5.49
2022-11-23T17:55:35.617Z,5.40
2022-11-23T18:00:38.007Z,5.35
2022-11-23T18:05:45.086Z,5.27
2022-11-23T18:10:46.851Z,5.23
2022-11-23T18:15:55.444Z,5.31
2022-11-23T18:20:59.853Z,5.37
2022-11-23T18:26:16.413Z,5.49
2022-11-23T18:31:20.302Z,5.64
2022-11-23T18:36:27.097Z,5.83
2022-11-23T18:41:31.270Z,6.05
2022-11-23T18:46:37.350Z,6.21
2022-11-23T18:51:43.775Z,6.38
2022-11-23T18:56:48.816Z,6.48
2022-11-23T19:01:52.834Z,6.51
2022-11-23T19:06:54.559Z,6.55
2022-11-23T19:11:58.781Z,6.55
2022-11-23T19:17:02.622Z,6.55
2022-11-23T19:22:07.984Z,6.55
2022-11-23T19:27:14.066Z,6.54
2022-11-23T19:32:18.331Z,6.53
2022-11-23T19:37:25.543Z,6.50
2022-11-23T19:42:31.749Z,6.53
2022-11-23T19:47:35.328Z,6.53
2022-11-23T19:53:09.747Z,6.53
2022-11-23T19:58:04.618Z,6.52
2022-11-23T20:03:09.415Z,6.52
2022-11-23T20:08:11.165Z,6.52
2022-11-23T20:13:22.973Z,6.53
2022-11-23T20:18:30.746Z,6.47
2022-11-23T20:23:34.977Z,6.39
2022-11-23T20:28:37.859Z,6.29
2022-11-23T20:33:45.545Z,6.21
2022-11-23T20:38:50.710Z,6.14
2022-11-23T20:43:57.442Z,6.09
2022-11-23T20:49:02.112Z,6.07
2022-11-23T20:54:04.757Z,6.00
2022-11-23T20:59:06.876Z,5.96
2022-11-23T21:04:10.983Z,5.93
2022-11-23T21:09:12.716Z,5.94
2022-11-23T21:14:23.192Z,5.94
2022-11-23T21:19:27.381Z,5.96
2022-11-23T21:24:31.809Z,5.98
2022-11-23T21:29:38.864Z,6.01
2022-11-23T21:34:44.029Z,6.02
2022-11-23T21:39:52.549Z,6.05
2022-11-23T21:44:57.142Z,6.06
2022-11-23T21:50:01.284Z,6.07
2022-11-23T21:55:07.655Z,6.08
2022-11-23T22:00:13.775Z,6.10
2022-11-23T22:05:20.967Z,6.12
2022-11-23T22:10:30.185Z,6.13
2022-11-23T22:15:34.180Z,6.10
2022-11-23T22:20:39.398Z,6.03
2022-11-23T22:25:46.829Z,5.92
2022-11-23T22:30:53.419Z,5.87
2022-11-23T22:36:08.876Z,5.81
2022-11-23T22:41:17.265Z,5.84
2022-11-23T22:46:27.941Z,5.96
2022-11-23T22:51:30.234Z,6.10
2022-11-23T22:56:33.159Z,6.12
2022-11-23T23:01:36.695Z,5.97
2022-11-23T23:06:43.890Z,5.89
2022-11-23T23:11:49.719Z,5.92
2022-11-23T23:16:54.246Z,5.87
2022-11-23T23:22:02.671Z,5.98
2022-11-23T23:27:10.295Z,6.07
2022-11-23T23:32:18.272Z,6.15
2022-11-23T23:37:39.329Z,6.23
2022-11-23T23:43:10.148Z,6.24
2022-11-23T23:48:39.660Z,6.27
2022-11-23T23:53:54.825Z,6.28
2022-11-23T23:59:24.484Z,6.20
